Gentle Leader — C6WY9 — position and weather

sailwx.info

Track history (hours):
 
Tides and Currents Weather Stations Pressure Air Temp Water Temp Dewpoint Dewpoint Depression Visibility Wind Speed Wind Dir Waves Ship Positions

Gentle Leader

Last reported at 2016-Jan-10 09:33 UTC. Time now 2016-Feb-05 22:19 UTC.
Position N 36°51' W 122°50'.
Warning: this ship's position is 26 days out of date.

Length 200 m; draft 8.1 m.

Type: Cargo ship. MMSI: 311003300.

Date/timePositionNaut miles runAvg speedWind from/ knotsBaromVisibWave heightAir tempDewpointWater temp
2016-Jan-10 09:33N 36°51' W 122°50'1515.0
2016-Jan-10 08:33N 37°06' W 122°46'1514.8
2016-Jan-10 07:33N 37°20' W 122°43'1514.7
2016-Jan-10 06:33N 37°35' W 122°43'1111.3
2016-Jan-10 05:33N 37°46' W 122°39'1313.0
2016-Jan-10 04:34N 37°52' W 122°25'3 3.4
2016-Jan-10 03:33N 37°54' W 122°22'0 0.0
2016-Jan-10 02:33N 37°54' W 122°22'0 0.0
2016-Jan-10 01:33N 37°54' W 122°22'0 0.0
2016-Jan-10 00:33N 37°54' W 122°22'0 0.0
2016-Jan-09 23:30N 37°54' W 122°22'0 0.0
2016-Jan-09 22:33N 37°54' W 122°22'0 0.0
2016-Jan-09 21:33N 37°54' W 122°22'0 0.0
2016-Jan-09 20:33N 37°54' W 122°22'0 0.0
2016-Jan-09 19:33N 37°54' W 122°22'0 0.0
2016-Jan-09 18:33N 37°54' W 122°22'0 0.0
2016-Jan-09 17:33N 37°54' W 122°22'0 0.0
2016-Jan-09 16:30N 37°54' W 122°22'0 0.0
2016-Jan-09 15:33N 37°54' W 122°22'0 0.0
2016-Jan-09 14:33N 37°54' W 122°22'0 0.0
2016-Jan-09 13:33N 37°54' W 122°22'0 0.0
2016-Jan-09 12:33N 37°54' W 122°22'0 0.0
2016-Jan-09 11:33N 37°54' W 122°22'0 0.0
2016-Jan-09 10:33N 37°54' W 122°22'0 0.0
2016-Jan-09 09:33N 37°54' W 122°22'0 0.0
2016-Jan-09 08:33N 37°54' W 122°22'0 0.0
2016-Jan-09 07:33N 37°54' W 122°22'0 0.0
2016-Jan-09 06:33N 37°54' W 122°22'0 0.0
2016-Jan-09 05:30N 37°54' W 122°22'0 0.0
2016-Jan-09 04:33N 37°54' W 122°22'0 0.0
2016-Jan-09 03:33N 37°54' W 122°22'3 3.0
2016-Jan-09 02:33N 37°55' W 122°25'9 9.3
2016-Jan-09 01:33N 37°47' W 122°32'1111.1
2016-Jan-09 00:34N 37°46' W 122°46'1212.0
2016-Jan-08 23:33N 37°52' W 122°59'1212.3
2016-Jan-08 22:34N 37°59' W 123°12'1312.6
2016-Jan-08 21:33N 38°09' W 123°23'1313.2
2016-Jan-08 20:33N 38°16' W 123°36'1414.1
2016-Jan-08 19:33N 38°26' W 123°50'40612.7
2016-Jan-07 11:33N 45°11' W 124°30'1413.6
2016-Jan-07 10:33N 45°24' W 124°27'1413.6
2016-Jan-07 09:33N 45°38' W 124°24'1413.5
2016-Jan-07 08:33N 45°51' W 124°22'1313.0
2016-Jan-07 07:33N 46°04' W 124°17'1212.2
2016-Jan-07 06:34N 46°14' W 124°07'1111.4
2016-Jan-07 05:34N 46°12' W 123°51'10 9.9
2016-Jan-07 04:34N 46°16' W 123°38'1110.4
2016-Jan-07 03:33N 46°10' W 123°25'1211.8
2016-Jan-07 02:33N 46°11' W 123°08'1212.5
2016-Jan-07 01:33N 46°04' W 122°53'1111.2
2016-Jan-07 00:33N 45°54' W 122°48'1212.2
2016-Jan-06 23:33N 45°41' W 122°47'4 3.7
2016-Jan-06 22:31N 45°38' W 122°43'0 0.0
2016-Jan-06 21:28N 45°38' W 122°43'0 0.0
2016-Jan-06 20:25N 45°38' W 122°43'0 0.0
2016-Jan-06 19:28N 45°38' W 122°43'0 0.0
2016-Jan-06 18:22N 45°38' W 122°43'0 0.0
2016-Jan-06 17:28N 45°38' W 122°43'0 0.0
2016-Jan-06 16:28N 45°38' W 122°43'0 0.0
2016-Jan-06 15:28N 45°38' W 122°43'0 0.0
2016-Jan-06 14:25N 45°38' W 122°43'0 0.0
2016-Jan-06 13:31N 45°38' W 122°43'0 0.0
2016-Jan-06 12:28N 45°38' W 122°43'0 0.0
2016-Jan-06 11:28N 45°38' W 122°43'0 0.0
2016-Jan-06 10:31N 45°38' W 122°43'0 0.0
2016-Jan-06 09:31N 45°38' W 122°43'0 0.0
2016-Jan-06 08:28N 45°38' W 122°43'0 0.0
2016-Jan-06 07:25N 45°38' W 122°43'0 0.0
2016-Jan-06 06:31N 45°38' W 122°43'0 0.0
2016-Jan-06 05:31N 45°38' W 122°43'0 0.0
2016-Jan-06 04:31N 45°38' W 122°43'2 2.3
2016-Jan-06 03:33N 45°39' W 122°46'1312.8
2016-Jan-06 02:33N 45°52' W 122°47'1111.4
2016-Jan-06 01:33N 46°03' W 122°53'1010.0
2016-Jan-06 00:33N 46°09' W 123°04'10 9.7
2016-Jan-05 23:33N 46°09' W 123°18'1010.4
2016-Jan-05 22:34N 46°16' W 123°28'1312.6
2016-Jan-05 21:34N 46°13' W 123°46'9 9.1
2016-Jan-05 20:34N 46°14' W 123°59'1212.2
2016-Jan-05 19:34N 46°13' W 124°17'1313.4
2016-Jan-05 18:33N 46°23' W 124°29'1414.1
2016-Jan-05 17:33N 46°34' W 124°42'1413.9
2016-Jan-05 16:34N 46°47' W 124°49'1414.0
2016-Jan-05 15:33N 47°00' W 124°57'8313.8
2016-Jan-05 09:33N 48°23' W 125°10'3913.1
2016-Jan-05 06:33N 48°22' W 124°11'1515.0
2016-Jan-05 05:33N 48°17' W 123°49'1414.1
2016-Jan-05 04:34N 48°18' W 123°28'1211.8
2016-Jan-05 03:34N 48°24' W 123°14'1818.0
2016-Jan-05 02:34N 48°42' W 123°14'1212.0
2016-Jan-05 01:34N 48°54' W 123°08'1414.2
2016-Jan-05 00:34N 49°06' W 123°19'1211.7
2016-Jan-04 23:33N 49°09' W 123°02'5 4.7
2016-Jan-04 22:32N 49°11' W 122°55'0 0.0
2016-Jan-04 21:32N 49°11' W 122°55'0 0.0
2016-Jan-04 20:32N 49°11' W 122°55'0 0.0
2016-Jan-04 19:32N 49°11' W 122°55'0 0.0
2016-Jan-04 18:32N 49°11' W 122°55'0 0.0
2016-Jan-04 17:32N 49°11' W 122°55'0 0.0
2016-Jan-04 16:32N 49°11' W 122°55'0 0.0
2016-Jan-04 15:32N 49°11' W 122°55'0 0.0
2016-Jan-04 14:32N 49°11' W 122°55'0 0.0
2016-Jan-04 13:32N 49°11' W 122°55'0 0.0
2016-Jan-04 12:32N 49°11' W 122°55'0 0.0
2016-Jan-04 11:32N 49°11' W 122°55'7 7.1
2016-Jan-04 10:33N 49°07' W 123°04'1211.6
2016-Jan-04 09:33N 49°03' W 123°21'1312.9
2016-Jan-04 08:33N 48°55' W 123°06'1212.0
2016-Jan-04 07:33N 48°43' W 123°09'1414.2
2016-Jan-04 06:33N 48°29' W 123°10'1313.0
2016-Jan-04 05:34N 48°20' W 123°24'8 8.1
2016-Jan-04 04:33N 48°13' W 123°32'12 9.5
2016-Jan-04 03:18N 48°13' W 123°50'48 9.5
2016-Jan-03 22:13N 48°29' W 124°58'9 9.5
2016-Jan-03 21:19N 48°28' W 125°11'7 9.6
2016-Jan-03 20:34N 48°28' W 125°22'10 9.7
2016-Jan-03 19:34N 48°30' W 125°37'10 9.8
2016-Jan-03 18:33N 48°32' W 125°51'3 2.9
2016-Jan-03 17:34N 48°32' W 125°56'2 2.3
2016-Jan-03 16:33N 48°31' W 125°52'2 2.0
2016-Jan-03 15:33N 48°31' W 125°49'3 3.1
2016-Jan-03 14:33N 48°34' W 125°52'2 2.3
2016-Jan-03 13:33N 48°34' W 125°56'2 2.2
2016-Jan-03 12:34N 48°33' W 125°53'2 2.3
2016-Jan-03 11:34N 48°32' W 125°50'4 4.2
2016-Jan-03 10:33N 48°36' W 125°53'3 3.0
2016-Jan-03 09:33N 48°39' W 125°54'2 2.4
2016-Jan-03 08:33N 48°37' W 125°52'2 2.4
2016-Jan-03 07:33N 48°35' W 125°49'2 2.2
2016-Jan-03 06:33N 48°34' W 125°47'4 4.3
2016-Jan-03 05:34N 48°36' W 125°52'1 1.3
2016-Jan-03 04:33N 48°36' W 125°54'3 2.5
2016-Jan-03 03:33N 48°34' W 125°51'2 2.1
2016-Jan-03 02:33N 48°34' W 125°48'2 2.1
2016-Jan-03 01:33N 48°33' W 125°46'4 4.0
2016-Jan-03 00:33N 48°34' W 125°51'3 3.0
2016-Jan-02 23:34N 48°34' W 125°56'2 2.3
2016-Jan-02 22:34N 48°33' W 125°53'2 2.1
2016-Jan-02 21:33N 48°32' W 125°50'2 1.9
2016-Jan-02 20:33N 48°31' W 125°48'2 1.6
2016-Jan-02 19:33N 48°30' W 125°46'2 1.5
2016-Jan-02 18:34N 48°29' W 125°44'10 9.8
2016-Jan-02 17:33N 48°25' W 125°57'1412.9
2016-Jan-02 16:27N 48°23' W 126°18'6 3.0
2016-Jan-02 14:33N 48°22' W 126°26'  
Track history (hours):
 
Tides and Currents Weather Stations Pressure Air Temp Water Temp Dewpoint Dewpoint Depression Visibility Wind Speed Wind Dir Waves Ship Positions

Gentle Leader

Last reported at 2016-Jan-10 09:33 UTC. Time now 2016-Feb-05 22:19 UTC.
Position N 36°51' W 122°50'.
Warning: this ship's position is 26 days out of date.

Length 200 m; draft 8.1 m.

Type: Cargo ship. MMSI: 311003300.

Date/timePositionNaut miles runAvg speedWind from/ knotsBaromVisibWave heightAir tempDewpointWater temp
2016-Jan-10 09:33N 36°51' W 122°50'1515.0
2016-Jan-10 08:33N 37°06' W 122°46'1514.8
2016-Jan-10 07:33N 37°20' W 122°43'1514.7
2016-Jan-10 06:33N 37°35' W 122°43'1111.3
2016-Jan-10 05:33N 37°46' W 122°39'1313.0
2016-Jan-10 04:34N 37°52' W 122°25'3 3.4
2016-Jan-10 03:33N 37°54' W 122°22'0 0.0
2016-Jan-10 02:33N 37°54' W 122°22'0 0.0
2016-Jan-10 01:33N 37°54' W 122°22'0 0.0
2016-Jan-10 00:33N 37°54' W 122°22'0 0.0
2016-Jan-09 23:30N 37°54' W 122°22'0 0.0
2016-Jan-09 22:33N 37°54' W 122°22'0 0.0
2016-Jan-09 21:33N 37°54' W 122°22'0 0.0
2016-Jan-09 20:33N 37°54' W 122°22'0 0.0
2016-Jan-09 19:33N 37°54' W 122°22'0 0.0
2016-Jan-09 18:33N 37°54' W 122°22'0 0.0
2016-Jan-09 17:33N 37°54' W 122°22'0 0.0
2016-Jan-09 16:30N 37°54' W 122°22'0 0.0
2016-Jan-09 15:33N 37°54' W 122°22'0 0.0
2016-Jan-09 14:33N 37°54' W 122°22'0 0.0
2016-Jan-09 13:33N 37°54' W 122°22'0 0.0
2016-Jan-09 12:33N 37°54' W 122°22'0 0.0
2016-Jan-09 11:33N 37°54' W 122°22'0 0.0
2016-Jan-09 10:33N 37°54' W 122°22'0 0.0
2016-Jan-09 09:33N 37°54' W 122°22'0 0.0
2016-Jan-09 08:33N 37°54' W 122°22'0 0.0
2016-Jan-09 07:33N 37°54' W 122°22'0 0.0
2016-Jan-09 06:33N 37°54' W 122°22'0 0.0
2016-Jan-09 05:30N 37°54' W 122°22'0 0.0
2016-Jan-09 04:33N 37°54' W 122°22'0 0.0
2016-Jan-09 03:33N 37°54' W 122°22'3 3.0
2016-Jan-09 02:33N 37°55' W 122°25'9 9.3
2016-Jan-09 01:33N 37°47' W 122°32'1111.1
2016-Jan-09 00:34N 37°46' W 122°46'1212.0
2016-Jan-08 23:33N 37°52' W 122°59'1212.3
2016-Jan-08 22:34N 37°59' W 123°12'1312.6
2016-Jan-08 21:33N 38°09' W 123°23'1313.2
2016-Jan-08 20:33N 38°16' W 123°36'1414.1
2016-Jan-08 19:33N 38°26' W 123°50'40612.7
2016-Jan-07 11:33N 45°11' W 124°30'1413.6
2016-Jan-07 10:33N 45°24' W 124°27'1413.6
2016-Jan-07 09:33N 45°38' W 124°24'1413.5
2016-Jan-07 08:33N 45°51' W 124°22'1313.0
2016-Jan-07 07:33N 46°04' W 124°17'1212.2
2016-Jan-07 06:34N 46°14' W 124°07'1111.4
2016-Jan-07 05:34N 46°12' W 123°51'10 9.9
2016-Jan-07 04:34N 46°16' W 123°38'1110.4
2016-Jan-07 03:33N 46°10' W 123°25'1211.8
2016-Jan-07 02:33N 46°11' W 123°08'1212.5
2016-Jan-07 01:33N 46°04' W 122°53'1111.2
2016-Jan-07 00:33N 45°54' W 122°48'1212.2
2016-Jan-06 23:33N 45°41' W 122°47'4 3.7
2016-Jan-06 22:31N 45°38' W 122°43'0 0.0
2016-Jan-06 21:28N 45°38' W 122°43'0 0.0
2016-Jan-06 20:25N 45°38' W 122°43'0 0.0
2016-Jan-06 19:28N 45°38' W 122°43'0 0.0
2016-Jan-06 18:22N 45°38' W 122°43'0 0.0
2016-Jan-06 17:28N 45°38' W 122°43'0 0.0
2016-Jan-06 16:28N 45°38' W 122°43'0 0.0
2016-Jan-06 15:28N 45°38' W 122°43'0 0.0
2016-Jan-06 14:25N 45°38' W 122°43'0 0.0
2016-Jan-06 13:31N 45°38' W 122°43'0 0.0
2016-Jan-06 12:28N 45°38' W 122°43'0 0.0
2016-Jan-06 11:28N 45°38' W 122°43'0 0.0
2016-Jan-06 10:31N 45°38' W 122°43'0 0.0
2016-Jan-06 09:31N 45°38' W 122°43'0 0.0
2016-Jan-06 08:28N 45°38' W 122°43'0 0.0
2016-Jan-06 07:25N 45°38' W 122°43'0 0.0
2016-Jan-06 06:31N 45°38' W 122°43'0 0.0
2016-Jan-06 05:31N 45°38' W 122°43'0 0.0
2016-Jan-06 04:31N 45°38' W 122°43'2 2.3
2016-Jan-06 03:33N 45°39' W 122°46'1312.8
2016-Jan-06 02:33N 45°52' W 122°47'1111.4
2016-Jan-06 01:33N 46°03' W 122°53'1010.0
2016-Jan-06 00:33N 46°09' W 123°04'10 9.7
2016-Jan-05 23:33N 46°09' W 123°18'1010.4
2016-Jan-05 22:34N 46°16' W 123°28'1312.6
2016-Jan-05 21:34N 46°13' W 123°46'9 9.1
2016-Jan-05 20:34N 46°14' W 123°59'1212.2
2016-Jan-05 19:34N 46°13' W 124°17'1313.4
2016-Jan-05 18:33N 46°23' W 124°29'1414.1
2016-Jan-05 17:33N 46°34' W 124°42'1413.9
2016-Jan-05 16:34N 46°47' W 124°49'1414.0
2016-Jan-05 15:33N 47°00' W 124°57'8313.8
2016-Jan-05 09:33N 48°23' W 125°10'3913.1
2016-Jan-05 06:33N 48°22' W 124°11'1515.0
2016-Jan-05 05:33N 48°17' W 123°49'1414.1
2016-Jan-05 04:34N 48°18' W 123°28'1211.8
2016-Jan-05 03:34N 48°24' W 123°14'1818.0
2016-Jan-05 02:34N 48°42' W 123°14'1212.0
2016-Jan-05 01:34N 48°54' W 123°08'1414.2
2016-Jan-05 00:34N 49°06' W 123°19'1211.7
2016-Jan-04 23:33N 49°09' W 123°02'5 4.7
2016-Jan-04 22:32N 49°11' W 122°55'0 0.0
2016-Jan-04 21:32N 49°11' W 122°55'0 0.0
2016-Jan-04 20:32N 49°11' W 122°55'0 0.0
2016-Jan-04 19:32N 49°11' W 122°55'0 0.0
2016-Jan-04 18:32N 49°11' W 122°55'0 0.0
2016-Jan-04 17:32N 49°11' W 122°55'0 0.0
2016-Jan-04 16:32N 49°11' W 122°55'0 0.0
2016-Jan-04 15:32N 49°11' W 122°55'0 0.0
2016-Jan-04 14:32N 49°11' W 122°55'0 0.0
2016-Jan-04 13:32N 49°11' W 122°55'0 0.0
2016-Jan-04 12:32N 49°11' W 122°55'0 0.0
2016-Jan-04 11:32N 49°11' W 122°55'7 7.1
2016-Jan-04 10:33N 49°07' W 123°04'1211.6
2016-Jan-04 09:33N 49°03' W 123°21'1312.9
2016-Jan-04 08:33N 48°55' W 123°06'1212.0
2016-Jan-04 07:33N 48°43' W 123°09'1414.2
2016-Jan-04 06:33N 48°29' W 123°10'1313.0
2016-Jan-04 05:34N 48°20' W 123°24'8 8.1
2016-Jan-04 04:33N 48°13' W 123°32'12 9.5
2016-Jan-04 03:18N 48°13' W 123°50'48 9.5
2016-Jan-03 22:13N 48°29' W 124°58'9 9.5
2016-Jan-03 21:19N 48°28' W 125°11'7 9.6
2016-Jan-03 20:34N 48°28' W 125°22'10 9.7
2016-Jan-03 19:34N 48°30' W 125°37'10 9.8
2016-Jan-03 18:33N 48°32' W 125°51'3 2.9
2016-Jan-03 17:34N 48°32' W 125°56'2 2.3
2016-Jan-03 16:33N 48°31' W 125°52'2 2.0
2016-Jan-03 15:33N 48°31' W 125°49'3 3.1
2016-Jan-03 14:33N 48°34' W 125°52'2 2.3
2016-Jan-03 13:33N 48°34' W 125°56'2 2.2
2016-Jan-03 12:34N 48°33' W 125°53'2 2.3
2016-Jan-03 11:34N 48°32' W 125°50'4 4.2
2016-Jan-03 10:33N 48°36' W 125°53'3 3.0
2016-Jan-03 09:33N 48°39' W 125°54'2 2.4
2016-Jan-03 08:33N 48°37' W 125°52'2 2.4
2016-Jan-03 07:33N 48°35' W 125°49'2 2.2
2016-Jan-03 06:33N 48°34' W 125°47'4 4.3
2016-Jan-03 05:34N 48°36' W 125°52'1 1.3
2016-Jan-03 04:33N 48°36' W 125°54'3 2.5
2016-Jan-03 03:33N 48°34' W 125°51'2 2.1
2016-Jan-03 02:33N 48°34' W 125°48'2 2.1
2016-Jan-03 01:33N 48°33' W 125°46'4 4.0
2016-Jan-03 00:33N 48°34' W 125°51'3 3.0
2016-Jan-02 23:34N 48°34' W 125°56'2 2.3
2016-Jan-02 22:34N 48°33' W 125°53'2 2.1
2016-Jan-02 21:33N 48°32' W 125°50'2 1.9
2016-Jan-02 20:33N 48°31' W 125°48'2 1.6
2016-Jan-02 19:33N 48°30' W 125°46'2 1.5
2016-Jan-02 18:34N 48°29' W 125°44'10 9.8
2016-Jan-02 17:33N 48°25' W 125°57'1412.9
2016-Jan-02 16:27N 48°23' W 126°18'6 3.0
2016-Jan-02 14:33N 48°22' W 126°26'  

Dump ship's entire track history